sensor_id;sensor_type;location;lat;lon;timestamp;P1;durP1;ratioP1;P2;durP2;ratioP2
3689;SDS011;1861;50.240;8.596;2023-12-04T00:01:25;17.80;;;10.00;;
3689;SDS011;1861;50.240;8.596;2023-12-04T00:03:54;17.90;;;10.10;;
3689;SDS011;1861;50.240;8.596;2023-12-04T00:06:23;19.27;;;9.53;;
3689;SDS011;1861;50.240;8.596;2023-12-04T00:08:51;16.70;;;10.30;;
3689;SDS011;1861;50.240;8.596;2023-12-04T00:11:19;21.70;;;10.83;;
3689;SDS011;1861;50.240;8.596;2023-12-04T00:13:47;20.47;;;10.67;;
3689;SDS011;1861;50.240;8.596;2023-12-04T00:16:15;21.17;;;10.30;;
3689;SDS011;1861;50.240;8.596;2023-12-04T00:18:43;19.27;;;10.40;;
3689;SDS011;1861;50.240;8.596;2023-12-04T00:21:12;21.23;;;9.80;;
3689;SDS011;1861;50.240;8.596;2023-12-04T00:23:41;17.40;;;10.67;;
3689;SDS011;1861;50.240;8.596;2023-12-04T00:26:09;18.90;;;10.60;;
3689;SDS011;1861;50.240;8.596;2023-12-04T00:28:39;19.30;;;10.17;;
3689;SDS011;1861;50.240;8.596;2023-12-04T00:31:08;16.30;;;9.50;;
3689;SDS011;1861;50.240;8.596;2023-12-04T00:33:37;20.73;;;11.00;;
3689;SDS011;1861;50.240;8.596;2023-12-04T00:36:05;20.20;;;10.20;;
3689;SDS011;1861;50.240;8.596;2023-12-04T00:38:33;18.60;;;9.87;;
3689;SDS011;1861;50.240;8.596;2023-12-04T00:41:03;19.80;;;10.03;;
3689;SDS011;1861;50.240;8.596;2023-12-04T00:43:31;17.87;;;9.20;;
3689;SDS011;1861;50.240;8.596;2023-12-04T00:46:00;17.47;;;10.10;;
3689;SDS011;1861;50.240;8.596;2023-12-04T00:48:28;18.43;;;9.40;;
3689;SDS011;1861;50.240;8.596;2023-12-04T00:50:57;17.87;;;9.70;;
3689;SDS011;1861;50.240;8.596;2023-12-04T00:53:25;19.40;;;10.70;;
3689;SDS011;1861;50.240;8.596;2023-12-04T00:55:53;17.87;;;10.07;;
3689;SDS011;1861;50.240;8.596;2023-12-04T00:58:22;19.93;;;10.53;;
3689;SDS011;1861;50.240;8.596;2023-12-04T01:00:51;16.50;;;9.60;;
3689;SDS011;1861;50.240;8.596;2023-12-04T01:03:19;19.30;;;10.30;;
3689;SDS011;1861;50.240;8.596;2023-12-04T01:05:47;16.20;;;9.80;;
3689;SDS011;1861;50.240;8.596;2023-12-04T01:08:15;19.43;;;11.43;;
3689;SDS011;1861;50.240;8.596;2023-12-04T01:10:44;17.77;;;10.07;;
3689;SDS011;1861;50.240;8.596;2023-12-04T01:13:12;18.33;;;10.47;;
3689;SDS011;1861;50.240;8.596;2023-12-04T01:15:42;22.50;;;10.50;;
3689;SDS011;1861;50.240;8.596;2023-12-04T01:18:12;17.97;;;9.43;;
3689;SDS011;1861;50.240;8.596;2023-12-04T01:20:41;17.87;;;9.60;;
3689;SDS011;1861;50.240;8.596;2023-12-04T01:23:09;22.33;;;10.90;;
3689;SDS011;1861;50.240;8.596;2023-12-04T01:25:37;19.70;;;11.30;;
3689;SDS011;1861;50.240;8.596;2023-12-04T01:28:05;16.03;;;10.23;;
3689;SDS011;1861;50.240;8.596;2023-12-04T01:30:33;16.23;;;9.17;;
3689;SDS011;1861;50.240;8.596;2023-12-04T01:33:03;21.03;;;10.80;;
3689;SDS011;1861;50.240;8.596;2023-12-04T01:35:31;18.70;;;9.80;;
3689;SDS011;1861;50.240;8.596;2023-12-04T01:37:59;18.27;;;10.30;;
3689;SDS011;1861;50.240;8.596;2023-12-04T01:40:27;16.37;;;9.20;;
3689;SDS011;1861;50.240;8.596;2023-12-04T01:42:55;17.60;;;10.13;;
3689;SDS011;1861;50.240;8.596;2023-12-04T01:45:24;17.40;;;9.77;;
3689;SDS011;1861;50.240;8.596;2023-12-04T01:47:52;18.47;;;9.40;;
3689;SDS011;1861;50.240;8.596;2023-12-04T01:50:22;20.70;;;10.90;;
3689;SDS011;1861;50.240;8.596;2023-12-04T01:52:50;17.13;;;9.77;;
3689;SDS011;1861;50.240;8.596;2023-12-04T01:55:20;19.20;;;9.93;;
3689;SDS011;1861;50.240;8.596;2023-12-04T01:57:49;22.30;;;10.83;;
3689;SDS011;1861;50.240;8.596;2023-12-04T02:00:17;21.87;;;11.00;;
3689;SDS011;1861;50.240;8.596;2023-12-04T02:02:47;19.60;;;10.47;;
3689;SDS011;1861;50.240;8.596;2023-12-04T02:05:16;21.13;;;11.33;;
3689;SDS011;1861;50.240;8.596;2023-12-04T02:07:46;18.90;;;10.60;;
3689;SDS011;1861;50.240;8.596;2023-12-04T02:10:14;19.90;;;10.10;;
3689;SDS011;1861;50.240;8.596;2023-12-04T02:12:42;19.13;;;9.80;;
3689;SDS011;1861;50.240;8.596;2023-12-04T02:15:10;19.00;;;9.90;;
3689;SDS011;1861;50.240;8.596;2023-12-04T02:17:39;22.53;;;11.70;;
3689;SDS011;1861;50.240;8.596;2023-12-04T02:20:12;19.30;;;9.57;;
3689;SDS011;1861;50.240;8.596;2023-12-04T02:22:40;18.83;;;10.20;;
3689;SDS011;1861;50.240;8.596;2023-12-04T02:25:10;21.57;;;10.83;;
3689;SDS011;1861;50.240;8.596;2023-12-04T02:27:59;19.30;;;10.40;;
3689;SDS011;1861;50.240;8.596;2023-12-04T02:30:29;19.87;;;10.03;;
3689;SDS011;1861;50.240;8.596;2023-12-04T02:33:01;20.67;;;10.33;;
3689;SDS011;1861;50.240;8.596;2023-12-04T02:35:31;17.97;;;10.23;;
3689;SDS011;1861;50.240;8.596;2023-12-04T02:38:01;17.50;;;10.10;;
3689;SDS011;1861;50.240;8.596;2023-12-04T02:40:32;20.37;;;10.67;;
3689;SDS011;1861;50.240;8.596;2023-12-04T02:43:00;19.13;;;10.07;;
3689;SDS011;1861;50.240;8.596;2023-12-04T02:45:28;21.57;;;10.93;;
3689;SDS011;1861;50.240;8.596;2023-12-04T02:47:57;20.50;;;11.13;;
3689;SDS011;1861;50.240;8.596;2023-12-04T02:50:25;22.23;;;10.60;;
3689;SDS011;1861;50.240;8.596;2023-12-04T02:52:53;19.23;;;9.93;;
3689;SDS011;1861;50.240;8.596;2023-12-04T02:55:21;19.20;;;9.97;;
3689;SDS011;1861;50.240;8.596;2023-12-04T02:57:50;19.17;;;10.00;;
3689;SDS011;1861;50.240;8.596;2023-12-04T03:00:18;17.97;;;9.40;;
3689;SDS011;1861;50.240;8.596;2023-12-04T03:02:47;19.07;;;10.47;;
3689;SDS011;1861;50.240;8.596;2023-12-04T03:05:15;20.30;;;9.90;;
3689;SDS011;1861;50.240;8.596;2023-12-04T03:07:43;21.77;;;11.03;;
3689;SDS011;1861;50.240;8.596;2023-12-04T03:10:12;23.97;;;11.30;;
3689;SDS011;1861;50.240;8.596;2023-12-04T03:12:40;19.57;;;11.10;;
3689;SDS011;1861;50.240;8.596;2023-12-04T03:15:09;18.77;;;10.43;;
3689;SDS011;1861;50.240;8.596;2023-12-04T03:17:39;16.67;;;9.10;;
3689;SDS011;1861;50.240;8.596;2023-12-04T03:20:07;19.83;;;10.03;;
3689;SDS011;1861;50.240;8.596;2023-12-04T03:22:37;17.63;;;10.53;;
3689;SDS011;1861;50.240;8.596;2023-12-04T03:25:05;19.00;;;9.43;;
3689;SDS011;1861;50.240;8.596;2023-12-04T03:27:34;18.90;;;10.13;;
3689;SDS011;1861;50.240;8.596;2023-12-04T03:30:02;19.47;;;10.33;;
3689;SDS011;1861;50.240;8.596;2023-12-04T03:32:32;22.53;;;10.80;;
3689;SDS011;1861;50.240;8.596;2023-12-04T03:35:00;18.47;;;10.80;;
3689;SDS011;1861;50.240;8.596;2023-12-04T03:37:29;19.03;;;11.10;;
3689;SDS011;1861;50.240;8.596;2023-12-04T03:39:57;20.80;;;10.17;;
3689;SDS011;1861;50.240;8.596;2023-12-04T03:42:25;19.40;;;10.87;;
3689;SDS011;1861;50.240;8.596;2023-12-04T03:44:53;23.17;;;11.20;;
3689;SDS011;1861;50.240;8.596;2023-12-04T03:47:22;18.80;;;10.43;;
3689;SDS011;1861;50.240;8.596;2023-12-04T03:49:53;18.93;;;10.90;;
3689;SDS011;1861;50.240;8.596;2023-12-04T03:52:21;23.20;;;11.50;;
3689;SDS011;1861;50.240;8.596;2023-12-04T03:54:49;19.60;;;10.13;;
3689;SDS011;1861;50.240;8.596;2023-12-04T03:57:17;21.67;;;11.13;;
3689;SDS011;1861;50.240;8.596;2023-12-04T03:59:45;21.60;;;11.57;;
3689;SDS011;1861;50.240;8.596;2023-12-04T04:02:14;20.17;;;10.23;;
3689;SDS011;1861;50.240;8.596;2023-12-04T04:04:42;20.07;;;10.73;;
3689;SDS011;1861;50.240;8.596;2023-12-04T04:07:11;18.50;;;9.83;;
3689;SDS011;1861;50.240;8.596;2023-12-04T04:09:39;20.67;;;11.27;;
3689;SDS011;1861;50.240;8.596;2023-12-04T04:12:08;18.00;;;10.13;;
3689;SDS011;1861;50.240;8.596;2023-12-04T04:14:36;19.00;;;10.17;;
3689;SDS011;1861;50.240;8.596;2023-12-04T04:17:04;19.23;;;10.80;;
3689;SDS011;1861;50.240;8.596;2023-12-04T04:19:33;24.33;;;11.40;;
3689;SDS011;1861;50.240;8.596;2023-12-04T04:22:01;21.43;;;11.43;;
3689;SDS011;1861;50.240;8.596;2023-12-04T04:24:31;19.57;;;10.70;;
3689;SDS011;1861;50.240;8.596;2023-12-04T04:26:59;17.90;;;10.53;;
3689;SDS011;1861;50.240;8.596;2023-12-04T04:29:27;20.67;;;11.00;;
3689;SDS011;1861;50.240;8.596;2023-12-04T04:31:56;21.47;;;11.17;;
3689;SDS011;1861;50.240;8.596;2023-12-04T04:34:24;21.23;;;11.40;;
3689;SDS011;1861;50.240;8.596;2023-12-04T04:36:53;22.67;;;11.87;;
3689;SDS011;1861;50.240;8.596;2023-12-04T04:39:21;22.73;;;11.73;;
3689;SDS011;1861;50.240;8.596;2023-12-04T04:41:50;19.07;;;10.07;;
3689;SDS011;1861;50.240;8.596;2023-12-04T04:44:18;22.40;;;10.87;;
3689;SDS011;1861;50.240;8.596;2023-12-04T04:46:48;21.23;;;10.80;;
3689;SDS011;1861;50.240;8.596;2023-12-04T04:49:16;22.47;;;11.63;;
3689;SDS011;1861;50.240;8.596;2023-12-04T04:51:45;17.87;;;9.93;;
3689;SDS011;1861;50.240;8.596;2023-12-04T04:54:13;25.37;;;10.97;;
3689;SDS011;1861;50.240;8.596;2023-12-04T04:56:41;18.47;;;10.20;;
3689;SDS011;1861;50.240;8.596;2023-12-04T04:59:10;22.03;;;11.67;;
3689;SDS011;1861;50.240;8.596;2023-12-04T05:01:38;22.60;;;11.97;;
3689;SDS011;1861;50.240;8.596;2023-12-04T05:04:07;19.93;;;10.17;;
3689;SDS011;1861;50.240;8.596;2023-12-04T05:06:35;21.63;;;10.87;;
3689;SDS011;1861;50.240;8.596;2023-12-04T05:09:03;18.20;;;9.80;;
3689;SDS011;1861;50.240;8.596;2023-12-04T05:11:32;18.70;;;10.30;;
3689;SDS011;1861;50.240;8.596;2023-12-04T05:14:00;18.87;;;10.73;;
3689;SDS011;1861;50.240;8.596;2023-12-04T05:16:29;20.40;;;11.77;;
3689;SDS011;1861;50.240;8.596;2023-12-04T05:18:57;18.93;;;10.70;;
3689;SDS011;1861;50.240;8.596;2023-12-04T05:21:26;21.27;;;10.33;;
3689;SDS011;1861;50.240;8.596;2023-12-04T05:23:54;25.60;;;11.70;;
3689;SDS011;1861;50.240;8.596;2023-12-04T05:26:22;19.33;;;10.87;;
3689;SDS011;1861;50.240;8.596;2023-12-04T05:28:50;18.80;;;10.47;;
3689;SDS011;1861;50.240;8.596;2023-12-04T05:31:18;18.83;;;11.73;;
3689;SDS011;1861;50.240;8.596;2023-12-04T05:33:48;22.33;;;11.67;;
3689;SDS011;1861;50.240;8.596;2023-12-04T05:36:16;19.57;;;9.80;;
3689;SDS011;1861;50.240;8.596;2023-12-04T05:38:44;23.20;;;11.70;;
3689;SDS011;1861;50.240;8.596;2023-12-04T05:41:12;17.60;;;10.80;;
3689;SDS011;1861;50.240;8.596;2023-12-04T05:43:40;18.23;;;10.30;;
3689;SDS011;1861;50.240;8.596;2023-12-04T05:46:08;19.63;;;11.20;;
3689;SDS011;1861;50.240;8.596;2023-12-04T05:48:36;20.70;;;11.30;;
3689;SDS011;1861;50.240;8.596;2023-12-04T05:51:06;18.70;;;10.47;;
3689;SDS011;1861;50.240;8.596;2023-12-04T05:53:34;20.10;;;10.70;;
3689;SDS011;1861;50.240;8.596;2023-12-04T05:56:04;20.47;;;11.10;;
3689;SDS011;1861;50.240;8.596;2023-12-04T05:58:33;21.43;;;10.63;;
3689;SDS011;1861;50.240;8.596;2023-12-04T06:01:01;25.40;;;12.10;;
3689;SDS011;1861;50.240;8.596;2023-12-04T06:03:29;16.53;;;9.80;;
3689;SDS011;1861;50.240;8.596;2023-12-04T06:05:58;17.00;;;9.70;;
3689;SDS011;1861;50.240;8.596;2023-12-04T06:08:31;22.10;;;11.53;;
3689;SDS011;1861;50.240;8.596;2023-12-04T06:10:59;19.93;;;10.30;;
3689;SDS011;1861;50.240;8.596;2023-12-04T06:13:28;20.60;;;11.40;;
3689;SDS011;1861;50.240;8.596;2023-12-04T06:15:56;18.43;;;10.23;;
3689;SDS011;1861;50.240;8.596;2023-12-04T06:18:24;21.47;;;10.87;;
3689;SDS011;1861;50.240;8.596;2023-12-04T06:20:54;20.07;;;11.07;;
3689;SDS011;1861;50.240;8.596;2023-12-04T06:23:23;20.50;;;11.23;;
3689;SDS011;1861;50.240;8.596;2023-12-04T06:25:53;20.27;;;11.03;;
3689;SDS011;1861;50.240;8.596;2023-12-04T06:28:22;21.70;;;11.53;;
3689;SDS011;1861;50.240;8.596;2023-12-04T06:30:51;17.70;;;9.90;;
3689;SDS011;1861;50.240;8.596;2023-12-04T06:33:20;17.57;;;10.57;;
3689;SDS011;1861;50.240;8.596;2023-12-04T06:35:48;17.97;;;10.50;;
3689;SDS011;1861;50.240;8.596;2023-12-04T06:38:17;21.20;;;11.73;;
3689;SDS011;1861;50.240;8.596;2023-12-04T06:40:50;15.87;;;9.70;;
3689;SDS011;1861;50.240;8.596;2023-12-04T06:43:20;21.67;;;11.00;;
3689;SDS011;1861;50.240;8.596;2023-12-04T06:45:49;21.10;;;10.60;;
3689;SDS011;1861;50.240;8.596;2023-12-04T06:48:18;20.13;;;11.60;;
3689;SDS011;1861;50.240;8.596;2023-12-04T06:50:46;20.87;;;10.57;;
3689;SDS011;1861;50.240;8.596;2023-12-04T06:53:14;21.00;;;10.00;;
3689;SDS011;1861;50.240;8.596;2023-12-04T06:55:42;21.53;;;10.70;;
3689;SDS011;1861;50.240;8.596;2023-12-04T06:58:11;19.63;;;10.50;;
3689;SDS011;1861;50.240;8.596;2023-12-04T07:00:40;20.60;;;10.67;;
3689;SDS011;1861;50.240;8.596;2023-12-04T07:03:08;18.20;;;9.80;;
3689;SDS011;1861;50.240;8.596;2023-12-04T07:05:36;19.43;;;9.87;;
3689;SDS011;1861;50.240;8.596;2023-12-04T07:08:05;20.63;;;10.53;;
3689;SDS011;1861;50.240;8.596;2023-12-04T07:10:33;21.80;;;10.47;;
3689;SDS011;1861;50.240;8.596;2023-12-04T07:13:01;19.93;;;10.00;;
3689;SDS011;1861;50.240;8.596;2023-12-04T07:15:29;19.90;;;10.90;;
3689;SDS011;1861;50.240;8.596;2023-12-04T07:17:58;21.30;;;11.30;;
3689;SDS011;1861;50.240;8.596;2023-12-04T07:20:27;17.70;;;9.70;;
3689;SDS011;1861;50.240;8.596;2023-12-04T07:22:55;18.20;;;9.53;;
3689;SDS011;1861;50.240;8.596;2023-12-04T07:25:24;19.23;;;10.27;;
3689;SDS011;1861;50.240;8.596;2023-12-04T07:27:52;20.10;;;10.57;;
3689;SDS011;1861;50.240;8.596;2023-12-04T07:30:20;17.80;;;9.30;;
3689;SDS011;1861;50.240;8.596;2023-12-04T07:32:48;23.37;;;10.57;;
3689;SDS011;1861;50.240;8.596;2023-12-04T07:35:18;20.00;;;10.53;;
3689;SDS011;1861;50.240;8.596;2023-12-04T07:37:46;21.17;;;11.00;;
3689;SDS011;1861;50.240;8.596;2023-12-04T07:40:15;19.87;;;10.40;;
3689;SDS011;1861;50.240;8.596;2023-12-04T07:42:43;19.80;;;10.13;;
3689;SDS011;1861;50.240;8.596;2023-12-04T07:45:11;20.73;;;11.20;;
3689;SDS011;1861;50.240;8.596;2023-12-04T07:47:42;18.57;;;10.43;;
3689;SDS011;1861;50.240;8.596;2023-12-04T07:50:10;22.60;;;10.13;;
3689;SDS011;1861;50.240;8.596;2023-12-04T07:52:40;19.20;;;10.43;;
3689;SDS011;1861;50.240;8.596;2023-12-04T07:55:08;18.40;;;10.40;;
3689;SDS011;1861;50.240;8.596;2023-12-04T07:57:36;21.33;;;10.37;;
3689;SDS011;1861;50.240;8.596;2023-12-04T08:00:05;24.53;;;9.80;;
3689;SDS011;1861;50.240;8.596;2023-12-04T08:02:34;19.00;;;10.20;;
3689;SDS011;1861;50.240;8.596;2023-12-04T08:05:02;18.97;;;9.80;;
3689;SDS011;1861;50.240;8.596;2023-12-04T08:07:30;21.43;;;10.37;;
3689;SDS011;1861;50.240;8.596;2023-12-04T08:10:00;18.80;;;9.70;;
3689;SDS011;1861;50.240;8.596;2023-12-04T08:12:29;18.53;;;10.07;;
3689;SDS011;1861;50.240;8.596;2023-12-04T08:14:57;18.27;;;9.67;;
3689;SDS011;1861;50.240;8.596;2023-12-04T08:17:25;21.10;;;10.87;;
3689;SDS011;1861;50.240;8.596;2023-12-04T08:19:53;16.27;;;9.97;;
3689;SDS011;1861;50.240;8.596;2023-12-04T08:22:22;21.67;;;10.37;;
3689;SDS011;1861;50.240;8.596;2023-12-04T08:24:51;16.60;;;10.10;;
3689;SDS011;1861;50.240;8.596;2023-12-04T08:27:20;17.87;;;9.60;;
3689;SDS011;1861;50.240;8.596;2023-12-04T08:29:49;18.50;;;9.53;;
3689;SDS011;1861;50.240;8.596;2023-12-04T08:32:17;20.00;;;10.20;;
3689;SDS011;1861;50.240;8.596;2023-12-04T08:34:46;16.23;;;10.10;;
3689;SDS011;1861;50.240;8.596;2023-12-04T08:37:14;18.90;;;10.03;;
3689;SDS011;1861;50.240;8.596;2023-12-04T08:39:43;20.43;;;10.30;;
3689;SDS011;1861;50.240;8.596;2023-12-04T08:42:11;18.50;;;9.63;;
3689;SDS011;1861;50.240;8.596;2023-12-04T08:44:50;18.33;;;9.73;;
3689;SDS011;1861;50.240;8.596;2023-12-04T08:47:18;17.67;;;10.30;;
3689;SDS011;1861;50.240;8.596;2023-12-04T08:49:46;16.47;;;9.33;;
3689;SDS011;1861;50.240;8.596;2023-12-04T08:52:16;20.57;;;11.90;;
3689;SDS011;1861;50.240;8.596;2023-12-04T08:54:44;21.33;;;9.80;;
3689;SDS011;1861;50.240;8.596;2023-12-04T08:57:12;17.40;;;9.10;;
3689;SDS011;1861;50.240;8.596;2023-12-04T08:59:41;19.03;;;9.17;;
3689;SDS011;1861;50.240;8.596;2023-12-04T09:02:11;24.00;;;11.47;;
3689;SDS011;1861;50.240;8.596;2023-12-04T09:04:40;20.80;;;10.30;;
3689;SDS011;1861;50.240;8.596;2023-12-04T09:07:08;17.80;;;9.10;;
3689;SDS011;1861;50.240;8.596;2023-12-04T09:09:56;20.30;;;8.53;;
3689;SDS011;1861;50.240;8.596;2023-12-04T09:12:29;17.97;;;9.70;;
3689;SDS011;1861;50.240;8.596;2023-12-04T09:14:57;17.30;;;9.50;;
3689;SDS011;1861;50.240;8.596;2023-12-04T09:17:26;17.77;;;9.20;;
3689;SDS011;1861;50.240;8.596;2023-12-04T09:20:04;16.27;;;9.73;;
3689;SDS011;1861;50.240;8.596;2023-12-04T09:22:33;16.70;;;9.97;;
3689;SDS011;1861;50.240;8.596;2023-12-04T09:25:17;18.77;;;10.23;;
3689;SDS011;1861;50.240;8.596;2023-12-04T09:27:45;15.80;;;8.93;;
3689;SDS011;1861;50.240;8.596;2023-12-04T09:30:14;19.23;;;10.60;;
3689;SDS011;1861;50.240;8.596;2023-12-04T09:32:43;17.60;;;9.30;;
3689;SDS011;1861;50.240;8.596;2023-12-04T09:35:12;17.30;;;8.87;;
3689;SDS011;1861;50.240;8.596;2023-12-04T09:37:41;15.87;;;8.63;;
3689;SDS011;1861;50.240;8.596;2023-12-04T09:40:09;13.37;;;8.03;;
3689;SDS011;1861;50.240;8.596;2023-12-04T09:42:39;16.10;;;9.03;;
3689;SDS011;1861;50.240;8.596;2023-12-04T09:45:08;18.63;;;10.17;;
3689;SDS011;1861;50.240;8.596;2023-12-04T09:47:37;20.00;;;9.93;;
3689;SDS011;1861;50.240;8.596;2023-12-04T09:50:07;18.00;;;9.80;;
3689;SDS011;1861;50.240;8.596;2023-12-04T09:52:36;17.20;;;9.10;;
3689;SDS011;1861;50.240;8.596;2023-12-04T09:55:05;18.17;;;9.87;;
3689;SDS011;1861;50.240;8.596;2023-12-04T09:57:34;16.43;;;8.90;;
3689;SDS011;1861;50.240;8.596;2023-12-04T10:00:02;16.53;;;9.43;;
3689;SDS011;1861;50.240;8.596;2023-12-04T10:02:38;15.23;;;9.23;;
3689;SDS011;1861;50.240;8.596;2023-12-04T10:05:09;15.40;;;9.10;;
3689;SDS011;1861;50.240;8.596;2023-12-04T10:07:37;16.53;;;8.90;;
3689;SDS011;1861;50.240;8.596;2023-12-04T10:10:06;18.53;;;9.97;;
3689;SDS011;1861;50.240;8.596;2023-12-04T10:12:35;16.27;;;9.50;;
3689;SDS011;1861;50.240;8.596;2023-12-04T10:15:04;18.10;;;9.90;;
3689;SDS011;1861;50.240;8.596;2023-12-04T10:17:34;17.97;;;9.80;;
3689;SDS011;1861;50.240;8.596;2023-12-04T10:20:05;21.80;;;9.83;;
3689;SDS011;1861;50.240;8.596;2023-12-04T10:22:39;16.40;;;8.80;;
3689;SDS011;1861;50.240;8.596;2023-12-04T10:25:19;17.17;;;9.10;;
3689;SDS011;1861;50.240;8.596;2023-12-04T10:27:47;20.37;;;9.13;;
3689;SDS011;1861;50.240;8.596;2023-12-04T10:30:22;17.00;;;9.67;;
3689;SDS011;1861;50.240;8.596;2023-12-04T10:32:53;18.50;;;10.97;;
3689;SDS011;1861;50.240;8.596;2023-12-04T10:35:22;16.13;;;8.87;;
3689;SDS011;1861;50.240;8.596;2023-12-04T10:37:54;17.50;;;9.73;;
3689;SDS011;1861;50.240;8.596;2023-12-04T10:40:23;18.87;;;9.80;;
3689;SDS011;1861;50.240;8.596;2023-12-04T10:42:57;18.80;;;10.00;;
3689;SDS011;1861;50.240;8.596;2023-12-04T10:45:38;20.30;;;10.33;;
3689;SDS011;1861;50.240;8.596;2023-12-04T10:48:07;21.60;;;8.57;;
3689;SDS011;1861;50.240;8.596;2023-12-04T10:50:37;18.47;;;9.70;;
3689;SDS011;1861;50.240;8.596;2023-12-04T10:53:08;18.23;;;9.60;;
3689;SDS011;1861;50.240;8.596;2023-12-04T10:55:37;22.50;;;10.37;;
3689;SDS011;1861;50.240;8.596;2023-12-04T10:58:07;17.57;;;9.27;;
3689;SDS011;1861;50.240;8.596;2023-12-04T11:00:38;18.27;;;8.57;;
3689;SDS011;1861;50.240;8.596;2023-12-04T11:03:08;17.47;;;9.37;;
3689;SDS011;1861;50.240;8.596;2023-12-04T11:05:37;17.20;;;9.90;;
3689;SDS011;1861;50.240;8.596;2023-12-04T11:08:08;17.40;;;9.00;;
3689;SDS011;1861;50.240;8.596;2023-12-04T11:10:45;17.63;;;9.33;;
3689;SDS011;1861;50.240;8.596;2023-12-04T11:13:20;18.40;;;9.23;;
3689;SDS011;1861;50.240;8.596;2023-12-04T11:15:52;17.53;;;9.00;;
3689;SDS011;1861;50.240;8.596;2023-12-04T11:18:23;19.13;;;9.40;;
3689;SDS011;1861;50.240;8.596;2023-12-04T11:20:55;24.43;;;9.83;;
3689;SDS011;1861;50.240;8.596;2023-12-04T11:23:32;18.47;;;10.13;;
3689;SDS011;1861;50.240;8.596;2023-12-04T11:26:01;16.37;;;9.13;;
3689;SDS011;1861;50.240;8.596;2023-12-04T11:28:31;17.30;;;9.60;;
3689;SDS011;1861;50.240;8.596;2023-12-04T11:31:03;20.70;;;9.87;;
3689;SDS011;1861;50.240;8.596;2023-12-04T11:33:35;15.10;;;8.17;;
3689;SDS011;1861;50.240;8.596;2023-12-04T11:36:07;16.23;;;9.57;;
3689;SDS011;1861;50.240;8.596;2023-12-04T11:38:43;16.90;;;8.60;;
3689;SDS011;1861;50.240;8.596;2023-12-04T11:41:17;18.47;;;9.53;;
3689;SDS011;1861;50.240;8.596;2023-12-04T11:43:51;17.20;;;9.77;;
3689;SDS011;1861;50.240;8.596;2023-12-04T11:46:22;19.50;;;9.93;;
3689;SDS011;1861;50.240;8.596;2023-12-04T11:48:53;19.60;;;9.70;;
3689;SDS011;1861;50.240;8.596;2023-12-04T11:54:17;17.80;;;10.40;;
3689;SDS011;1861;50.240;8.596;2023-12-04T11:57:03;20.00;;;9.77;;
3689;SDS011;1861;50.240;8.596;2023-12-04T11:59:48;16.70;;;9.03;;
3689;SDS011;1861;50.240;8.596;2023-12-04T12:02:16;17.40;;;8.63;;
3689;SDS011;1861;50.240;8.596;2023-12-04T12:04:45;17.60;;;9.40;;
3689;SDS011;1861;50.240;8.596;2023-12-04T12:07:14;18.47;;;9.80;;
3689;SDS011;1861;50.240;8.596;2023-12-04T12:09:44;17.97;;;8.87;;
3689;SDS011;1861;50.240;8.596;2023-12-04T12:12:13;16.07;;;8.73;;
3689;SDS011;1861;50.240;8.596;2023-12-04T12:14:43;17.60;;;9.97;;
3689;SDS011;1861;50.240;8.596;2023-12-04T12:17:11;18.23;;;8.87;;
3689;SDS011;1861;50.240;8.596;2023-12-04T12:19:40;15.67;;;8.80;;
3689;SDS011;1861;50.240;8.596;2023-12-04T12:22:08;15.17;;;8.60;;
3689;SDS011;1861;50.240;8.596;2023-12-04T12:24:37;18.07;;;9.23;;
3689;SDS011;1861;50.240;8.596;2023-12-04T12:27:06;14.50;;;8.97;;
3689;SDS011;1861;50.240;8.596;2023-12-04T12:29:36;15.80;;;8.60;;
3689;SDS011;1861;50.240;8.596;2023-12-04T12:32:04;17.87;;;8.97;;
3689;SDS011;1861;50.240;8.596;2023-12-04T12:34:33;15.03;;;8.63;;
3689;SDS011;1861;50.240;8.596;2023-12-04T12:37:03;14.97;;;8.27;;
3689;SDS011;1861;50.240;8.596;2023-12-04T12:39:32;16.20;;;7.83;;
3689;SDS011;1861;50.240;8.596;2023-12-04T12:42:01;13.70;;;8.50;;
3689;SDS011;1861;50.240;8.596;2023-12-04T12:44:38;16.20;;;8.73;;
3689;SDS011;1861;50.240;8.596;2023-12-04T12:47:07;14.80;;;8.70;;
3689;SDS011;1861;50.240;8.596;2023-12-04T12:49:35;14.63;;;8.47;;
3689;SDS011;1861;50.240;8.596;2023-12-04T12:52:08;15.50;;;9.30;;
3689;SDS011;1861;50.240;8.596;2023-12-04T12:54:37;13.63;;;7.80;;
3689;SDS011;1861;50.240;8.596;2023-12-04T12:57:07;15.33;;;8.53;;
3689;SDS011;1861;50.240;8.596;2023-12-04T12:59:35;15.40;;;8.70;;
3689;SDS011;1861;50.240;8.596;2023-12-04T13:02:07;16.37;;;8.63;;
3689;SDS011;1861;50.240;8.596;2023-12-04T13:04:37;15.87;;;8.47;;
3689;SDS011;1861;50.240;8.596;2023-12-04T13:07:06;16.00;;;8.80;;
3689;SDS011;1861;50.240;8.596;2023-12-04T13:09:34;19.43;;;9.63;;
3689;SDS011;1861;50.240;8.596;2023-12-04T13:12:03;15.20;;;8.77;;
3689;SDS011;1861;50.240;8.596;2023-12-04T13:14:33;15.27;;;8.07;;
3689;SDS011;1861;50.240;8.596;2023-12-04T13:17:04;14.23;;;8.50;;
3689;SDS011;1861;50.240;8.596;2023-12-04T13:19:33;13.80;;;8.80;;
3689;SDS011;1861;50.240;8.596;2023-12-04T13:22:03;16.40;;;8.90;;
3689;SDS011;1861;50.240;8.596;2023-12-04T13:24:31;13.10;;;8.20;;
3689;SDS011;1861;50.240;8.596;2023-12-04T13:26:59;16.23;;;9.20;;
3689;SDS011;1861;50.240;8.596;2023-12-04T13:29:28;17.77;;;8.63;;
3689;SDS011;1861;50.240;8.596;2023-12-04T13:31:57;12.10;;;8.00;;
3689;SDS011;1861;50.240;8.596;2023-12-04T13:34:27;15.03;;;8.40;;
3689;SDS011;1861;50.240;8.596;2023-12-04T13:36:55;14.23;;;8.47;;
3689;SDS011;1861;50.240;8.596;2023-12-04T13:39:24;15.40;;;9.53;;
3689;SDS011;1861;50.240;8.596;2023-12-04T13:42:05;12.47;;;7.57;;
3689;SDS011;1861;50.240;8.596;2023-12-04T13:44:53;15.10;;;8.87;;
3689;SDS011;1861;50.240;8.596;2023-12-04T13:47:21;14.40;;;7.93;;
3689;SDS011;1861;50.240;8.596;2023-12-04T13:49:51;15.13;;;8.20;;
3689;SDS011;1861;50.240;8.596;2023-12-04T13:52:19;16.70;;;8.53;;
3689;SDS011;1861;50.240;8.596;2023-12-04T13:54:49;15.67;;;8.20;;
3689;SDS011;1861;50.240;8.596;2023-12-04T13:57:21;15.93;;;8.70;;
3689;SDS011;1861;50.240;8.596;2023-12-04T13:59:55;16.10;;;9.10;;
3689;SDS011;1861;50.240;8.596;2023-12-04T14:02:24;17.23;;;9.27;;
3689;SDS011;1861;50.240;8.596;2023-12-04T14:04:55;15.50;;;8.67;;
3689;SDS011;1861;50.240;8.596;2023-12-04T14:07:23;13.80;;;8.17;;
3689;SDS011;1861;50.240;8.596;2023-12-04T14:09:53;16.23;;;8.77;;
3689;SDS011;1861;50.240;8.596;2023-12-04T14:12:21;14.43;;;8.00;;
3689;SDS011;1861;50.240;8.596;2023-12-04T14:14:49;11.00;;;7.50;;
3689;SDS011;1861;50.240;8.596;2023-12-04T14:17:23;17.30;;;8.60;;
3689;SDS011;1861;50.240;8.596;2023-12-04T14:19:52;16.63;;;8.20;;
3689;SDS011;1861;50.240;8.596;2023-12-04T14:22:21;14.43;;;8.20;;
3689;SDS011;1861;50.240;8.596;2023-12-04T14:24:50;14.73;;;8.40;;
3689;SDS011;1861;50.240;8.596;2023-12-04T14:27:18;16.93;;;8.63;;
3689;SDS011;1861;50.240;8.596;2023-12-04T14:29:46;15.43;;;8.10;;
3689;SDS011;1861;50.240;8.596;2023-12-04T14:32:14;14.80;;;8.40;;
3689;SDS011;1861;50.240;8.596;2023-12-04T14:34:42;14.50;;;8.50;;
3689;SDS011;1861;50.240;8.596;2023-12-04T14:37:10;13.50;;;8.30;;
3689;SDS011;1861;50.240;8.596;2023-12-04T14:39:40;12.80;;;8.03;;
3689;SDS011;1861;50.240;8.596;2023-12-04T14:42:08;18.07;;;9.20;;
3689;SDS011;1861;50.240;8.596;2023-12-04T14:44:36;17.10;;;10.10;;
3689;SDS011;1861;50.240;8.596;2023-12-04T14:47:05;15.43;;;9.30;;
3689;SDS011;1861;50.240;8.596;2023-12-04T14:49:35;13.37;;;8.50;;
3689;SDS011;1861;50.240;8.596;2023-12-04T14:52:03;21.13;;;8.20;;
3689;SDS011;1861;50.240;8.596;2023-12-04T14:54:33;15.83;;;8.00;;
3689;SDS011;1861;50.240;8.596;2023-12-04T14:57:19;16.57;;;9.00;;
3689;SDS011;1861;50.240;8.596;2023-12-04T15:00:16;14.97;;;8.73;;
3689;SDS011;1861;50.240;8.596;2023-12-04T15:03:05;18.57;;;8.77;;
3689;SDS011;1861;50.240;8.596;2023-12-04T15:06:11;17.63;;;9.20;;
3689;SDS011;1861;50.240;8.596;2023-12-04T15:09:05;17.33;;;9.37;;
3689;SDS011;1861;50.240;8.596;2023-12-04T15:11:51;14.47;;;7.97;;
3689;SDS011;1861;50.240;8.596;2023-12-04T15:14:44;18.90;;;8.70;;